sensor_id;sensor_type;location;lat;lon;timestamp;temperature;humidity
77496;SHT31;66600;48.378;9.948;2024-03-17T18:51:08;10.32;83.69
77496;SHT31;66600;48.378;9.948;2024-03-17T18:51:42;10.28;83.77
77496;SHT31;66600;48.378;9.948;2024-03-17T18:52:15;10.32;83.70
77496;SHT31;66600;48.378;9.948;2024-03-17T18:52:46;10.32;83.75
77496;SHT31;66600;48.378;9.948;2024-03-17T18:53:45;10.33;83.79
77496;SHT31;66600;48.378;9.948;2024-03-17T18:54:22;10.32;83.79
77496;SHT31;66600;48.378;9.948;2024-03-17T18:54:57;10.33;83.94
77496;SHT31;66600;48.378;9.948;2024-03-17T18:55:29;10.32;83.90
77496;SHT31;66600;48.378;9.948;2024-03-17T18:56:03;10.32;83.97
77496;SHT31;66600;48.378;9.948;2024-03-17T18:56:36;10.30;83.90
77496;SHT31;66600;48.378;9.948;2024-03-17T18:57:06;10.32;83.92
77496;SHT31;66600;48.378;9.948;2024-03-17T18:57:37;10.30;83.95
77496;SHT31;66600;48.378;9.948;2024-03-17T18:58:11;10.33;83.97
77496;SHT31;66600;48.378;9.948;2024-03-17T18:58:43;10.33;83.96
77496;SHT31;66600;48.378;9.948;2024-03-17T18:59:18;10.36;83.97
77496;SHT31;66600;48.378;9.948;2024-03-17T18:59:53;10.40;83.94
77496;SHT31;66600;48.378;9.948;2024-03-17T19:00:24;10.39;83.92
77496;SHT31;66600;48.378;9.948;2024-03-17T19:00:58;10.40;83.96
77496;SHT31;66600;48.378;9.948;2024-03-17T19:01:40;10.39;83.96
77496;SHT31;66600;48.378;9.948;2024-03-17T19:02:13;10.39;83.96
77496;SHT31;66600;48.378;9.948;2024-03-17T19:02:47;10.40;83.98
77496;SHT31;66600;48.378;9.948;2024-03-17T19:03:21;10.39;84.04
77496;SHT31;66600;48.378;9.948;2024-03-17T19:03:54;10.39;84.05
77496;SHT31;66600;48.378;9.948;2024-03-17T19:04:25;10.40;84.08
77496;SHT31;66600;48.378;9.948;2024-03-17T19:04:56;10.40;84.11
77496;SHT31;66600;48.378;9.948;2024-03-17T19:05:27;10.37;84.11
77496;SHT31;66600;48.378;9.948;2024-03-17T19:06:10;10.41;84.16
77496;SHT31;66600;48.378;9.948;2024-03-17T19:06:41;10.40;84.12
77496;SHT31;66600;48.378;9.948;2024-03-17T19:07:12;10.41;84.13
77496;SHT31;66600;48.378;9.948;2024-03-17T19:07:43;10.43;84.19
77496;SHT31;66600;48.378;9.948;2024-03-17T19:08:14;10.41;84.23
77496;SHT31;66600;48.378;9.948;2024-03-17T19:08:44;10.40;84.27
77496;SHT31;66600;48.378;9.948;2024-03-17T19:09:15;10.41;84.34
77496;SHT31;66600;48.378;9.948;2024-03-17T19:09:46;10.39;84.35
77496;SHT31;66600;48.378;9.948;2024-03-17T19:10:16;10.41;84.42
77496;SHT31;66600;48.378;9.948;2024-03-17T19:10:56;10.40;84.43
77496;SHT31;66600;48.378;9.948;2024-03-17T19:11:27;10.39;84.52
77496;SHT31;66600;48.378;9.948;2024-03-17T19:11:57;10.37;84.56
77496;SHT31;66600;48.378;9.948;2024-03-17T19:12:28;10.39;84.57
77496;SHT31;66600;48.378;9.948;2024-03-17T19:12:58;10.39;84.61
77496;SHT31;66600;48.378;9.948;2024-03-17T19:13:29;10.39;84.61
77496;SHT31;66600;48.378;9.948;2024-03-17T19:14:01;10.40;84.59
77496;SHT31;66600;48.378;9.948;2024-03-17T19:14:32;10.39;84.62
77496;SHT31;66600;48.378;9.948;2024-03-17T19:15:04;10.37;84.64
77496;SHT31;66600;48.378;9.948;2024-03-17T19:15:36;10.37;84.72
77496;SHT31;66600;48.378;9.948;2024-03-17T19:16:10;10.36;84.75
77496;SHT31;66600;48.378;9.948;2024-03-17T19:16:47;10.36;84.73
77496;SHT31;66600;48.378;9.948;2024-03-17T19:17:18;10.41;84.64
77496;SHT31;66600;48.378;9.948;2024-03-17T19:17:49;10.39;84.67
77496;SHT31;66600;48.378;9.948;2024-03-17T19:18:20;10.37;84.71
77496;SHT31;66600;48.378;9.948;2024-03-17T19:18:51;10.39;84.64
77496;SHT31;66600;48.378;9.948;2024-03-17T19:19:21;10.39;84.65
77496;SHT31;66600;48.378;9.948;2024-03-17T19:19:52;10.41;84.64
77496;SHT31;66600;48.378;9.948;2024-03-17T19:20:26;10.39;84.68
77496;SHT31;66600;48.378;9.948;2024-03-17T19:21:06;10.36;84.66
77496;SHT31;66600;48.378;9.948;2024-03-17T19:21:42;10.37;84.78
77496;SHT31;66600;48.378;9.948;2024-03-17T19:22:18;10.33;84.81
77496;SHT31;66600;48.378;9.948;2024-03-17T19:22:55;10.36;84.83
77496;SHT31;66600;48.378;9.948;2024-03-17T19:23:25;10.40;84.76
77496;SHT31;66600;48.378;9.948;2024-03-17T19:24:00;10.40;84.78
77496;SHT31;66600;48.378;9.948;2024-03-17T19:24:31;10.41;84.74
77496;SHT31;66600;48.378;9.948;2024-03-17T19:25:02;10.37;84.74
77496;SHT31;66600;48.378;9.948;2024-03-17T19:25:36;10.39;84.76
77496;SHT31;66600;48.378;9.948;2024-03-17T19:26:14;10.39;84.80
77496;SHT31;66600;48.378;9.948;2024-03-17T19:26:51;10.37;84.82
77496;SHT31;66600;48.378;9.948;2024-03-17T19:27:22;10.36;84.82
77496;SHT31;66600;48.378;9.948;2024-03-17T19:27:53;10.34;84.88
77496;SHT31;66600;48.378;9.948;2024-03-17T19:28:23;10.36;84.94
77496;SHT31;66600;48.378;9.948;2024-03-17T19:28:53;10.33;85.02
77496;SHT31;66600;48.378;9.948;2024-03-17T19:29:28;10.32;85.03
77496;SHT31;66600;48.378;9.948;2024-03-17T19:29:58;10.32;85.09
77496;SHT31;66600;48.378;9.948;2024-03-17T19:30:29;10.34;85.13
77496;SHT31;66600;48.378;9.948;2024-03-17T19:31:00;10.37;84.98
77496;SHT31;66600;48.378;9.948;2024-03-17T19:31:30;10.41;84.83
77496;SHT31;66600;48.378;9.948;2024-03-17T19:32:01;10.41;84.75
77496;SHT31;66600;48.378;9.948;2024-03-17T19:32:32;10.41;84.78
77496;SHT31;66600;48.378;9.948;2024-03-17T19:33:03;10.44;84.69
77496;SHT31;66600;48.378;9.948;2024-03-17T19:33:34;10.44;84.67
77496;SHT31;66600;48.378;9.948;2024-03-17T19:34:05;10.46;84.68
77496;SHT31;66600;48.378;9.948;2024-03-17T19:34:35;10.47;84.59
77496;SHT31;66600;48.378;9.948;2024-03-17T19:35:07;10.49;84.55
77496;SHT31;66600;48.378;9.948;2024-03-17T19:35:37;10.50;84.52
77496;SHT31;66600;48.378;9.948;2024-03-17T19:36:08;10.51;84.49
77496;SHT31;66600;48.378;9.948;2024-03-17T19:36:40;10.49;84.49
77496;SHT31;66600;48.378;9.948;2024-03-17T19:37:10;10.47;84.55
77496;SHT31;66600;48.378;9.948;2024-03-17T19:37:40;10.46;84.53
77496;SHT31;66600;48.378;9.948;2024-03-17T19:38:11;10.47;84.54
77496;SHT31;66600;48.378;9.948;2024-03-17T19:38:41;10.44;84.60
77496;SHT31;66600;48.378;9.948;2024-03-17T19:39:18;10.43;84.62
77496;SHT31;66600;48.378;9.948;2024-03-17T19:39:49;10.41;84.64
77496;SHT31;66600;48.378;9.948;2024-03-17T19:40:19;10.40;84.71
77496;SHT31;66600;48.378;9.948;2024-03-17T19:40:56;10.36;84.86
77496;SHT31;66600;48.378;9.948;2024-03-17T19:41:27;10.32;85.00
77496;SHT31;66600;48.378;9.948;2024-03-17T19:41:58;10.32;85.06
77496;SHT31;66600;48.378;9.948;2024-03-17T19:42:31;10.32;85.10
77496;SHT31;66600;48.378;9.948;2024-03-17T19:43:01;10.30;85.15
77496;SHT31;66600;48.378;9.948;2024-03-17T19:43:31;10.30;85.16
77496;SHT31;66600;48.378;9.948;2024-03-17T19:44:04;10.28;85.18
77496;SHT31;66600;48.378;9.948;2024-03-17T19:44:34;10.30;85.25
77496;SHT31;66600;48.378;9.948;2024-03-17T19:45:05;10.28;85.27
77496;SHT31;66600;48.378;9.948;2024-03-17T19:45:36;10.26;85.28
77496;SHT31;66600;48.378;9.948;2024-03-17T19:46:11;10.26;85.35
77496;SHT31;66600;48.378;9.948;2024-03-17T19:46:42;10.24;85.40
77496;SHT31;66600;48.378;9.948;2024-03-17T19:47:12;10.20;85.44
77496;SHT31;66600;48.378;9.948;2024-03-17T19:47:45;10.20;85.53
77496;SHT31;66600;48.378;9.948;2024-03-17T19:48:15;10.19;85.62
77496;SHT31;66600;48.378;9.948;2024-03-17T19:48:46;10.20;85.63
77496;SHT31;66600;48.378;9.948;2024-03-17T19:49:19;10.20;85.65
77496;SHT31;66600;48.378;9.948;2024-03-17T19:49:50;10.19;85.64
77496;SHT31;66600;48.378;9.948;2024-03-17T19:50:21;10.13;85.73
77496;SHT31;66600;48.378;9.948;2024-03-17T19:50:52;10.17;85.73
77496;SHT31;66600;48.378;9.948;2024-03-17T19:51:25;10.17;85.65
77496;SHT31;66600;48.378;9.948;2024-03-17T19:51:55;10.14;85.70
77496;SHT31;66600;48.378;9.948;2024-03-17T19:52:26;10.16;85.73
77496;SHT31;66600;48.378;9.948;2024-03-17T19:52:56;10.19;85.71
77496;SHT31;66600;48.378;9.948;2024-03-17T19:53:26;10.20;85.67
77496;SHT31;66600;48.378;9.948;2024-03-17T19:53:57;10.20;85.66
77496;SHT31;66600;48.378;9.948;2024-03-17T19:54:27;10.16;85.65
77496;SHT31;66600;48.378;9.948;2024-03-17T19:54:58;10.17;85.73
77496;SHT31;66600;48.378;9.948;2024-03-17T19:55:28;10.13;85.69
77496;SHT31;66600;48.378;9.948;2024-03-17T19:55:58;10.17;85.75
77496;SHT31;66600;48.378;9.948;2024-03-17T19:56:29;10.19;85.72
77496;SHT31;66600;48.378;9.948;2024-03-17T19:57:00;10.16;85.74
77496;SHT31;66600;48.378;9.948;2024-03-17T19:57:31;10.13;85.76
77496;SHT31;66600;48.378;9.948;2024-03-17T19:58:01;10.13;85.90
77496;SHT31;66600;48.378;9.948;2024-03-17T19:58:37;10.13;85.96
77496;SHT31;66600;48.378;9.948;2024-03-17T19:59:07;10.12;85.92
77496;SHT31;66600;48.378;9.948;2024-03-17T19:59:38;10.12;86.02
77496;SHT31;66600;48.378;9.948;2024-03-17T20:00:09;10.12;86.02
77496;SHT31;66600;48.378;9.948;2024-03-17T20:00:40;10.13;86.06
77496;SHT31;66600;48.378;9.948;2024-03-17T20:01:11;10.10;86.10
77496;SHT31;66600;48.378;9.948;2024-03-17T20:01:41;10.09;86.15
77496;SHT31;66600;48.378;9.948;2024-03-17T20:02:12;10.08;86.22
77496;SHT31;66600;48.378;9.948;2024-03-17T20:02:43;10.05;86.19
77496;SHT31;66600;48.378;9.948;2024-03-17T20:03:13;10.03;86.22
77496;SHT31;66600;48.378;9.948;2024-03-17T20:03:45;10.02;86.22
77496;SHT31;66600;48.378;9.948;2024-03-17T20:04:16;9.99;86.27
77496;SHT31;66600;48.378;9.948;2024-03-17T20:04:47;9.99;86.29
77496;SHT31;66600;48.378;9.948;2024-03-17T20:05:17;9.92;86.51
77496;SHT31;66600;48.378;9.948;2024-03-17T20:05:48;9.93;86.62
77496;SHT31;66600;48.378;9.948;2024-03-17T20:06:20;9.91;86.62
77496;SHT31;66600;48.378;9.948;2024-03-17T20:06:52;9.86;86.79
77496;SHT31;66600;48.378;9.948;2024-03-17T20:07:22;9.85;86.86
77496;SHT31;66600;48.378;9.948;2024-03-17T20:07:52;9.84;86.96
77496;SHT31;66600;48.378;9.948;2024-03-17T20:08:23;9.79;87.02
77496;SHT31;66600;48.378;9.948;2024-03-17T20:08:55;9.82;87.05
77496;SHT31;66600;48.378;9.948;2024-03-17T20:09:28;9.86;86.98
77496;SHT31;66600;48.378;9.948;2024-03-17T20:09:59;9.86;86.96
77496;SHT31;66600;48.378;9.948;2024-03-17T20:10:29;9.91;86.93
77496;SHT31;66600;48.378;9.948;2024-03-17T20:11:01;9.86;86.89
77496;SHT31;66600;48.378;9.948;2024-03-17T20:11:33;9.86;86.98
77496;SHT31;66600;48.378;9.948;2024-03-17T20:12:03;9.86;87.00
77496;SHT31;66600;48.378;9.948;2024-03-17T20:12:35;9.85;86.97
77496;SHT31;66600;48.378;9.948;2024-03-17T20:13:05;9.86;87.03
77496;SHT31;66600;48.378;9.948;2024-03-17T20:13:35;9.84;86.98
77496;SHT31;66600;48.378;9.948;2024-03-17T20:14:06;9.85;87.03
77496;SHT31;66600;48.378;9.948;2024-03-17T20:14:37;9.85;87.14
77496;SHT31;66600;48.378;9.948;2024-03-17T20:15:10;9.84;87.08
77496;SHT31;66600;48.378;9.948;2024-03-17T20:15:41;9.86;87.05
77496;SHT31;66600;48.378;9.948;2024-03-17T20:16:15;9.88;87.13
77496;SHT31;66600;48.378;9.948;2024-03-17T20:16:49;9.86;87.13
77496;SHT31;66600;48.378;9.948;2024-03-17T20:17:19;9.85;87.12
77496;SHT31;66600;48.378;9.948;2024-03-17T20:17:50;9.78;87.22
77496;SHT31;66600;48.378;9.948;2024-03-17T20:18:21;9.77;87.37
77496;SHT31;66600;48.378;9.948;2024-03-17T20:18:53;9.71;87.56
77496;SHT31;66600;48.378;9.948;2024-03-17T20:19:24;9.71;87.76
77496;SHT31;66600;48.378;9.948;2024-03-17T20:19:55;9.72;87.77
77496;SHT31;66600;48.378;9.948;2024-03-17T20:20:25;9.68;87.73
77496;SHT31;66600;48.378;9.948;2024-03-17T20:20:57;9.68;87.94
77496;SHT31;66600;48.378;9.948;2024-03-17T20:21:28;9.67;87.95
77496;SHT31;66600;48.378;9.948;2024-03-17T20:21:58;9.67;88.03
77496;SHT31;66600;48.378;9.948;2024-03-17T20:22:29;9.68;88.03
77496;SHT31;66600;48.378;9.948;2024-03-17T20:22:59;9.67;87.99
77496;SHT31;66600;48.378;9.948;2024-03-17T20:23:31;9.67;88.04
77496;SHT31;66600;48.378;9.948;2024-03-17T20:24:01;9.68;87.95
77496;SHT31;66600;48.378;9.948;2024-03-17T20:24:31;9.75;87.89
77496;SHT31;66600;48.378;9.948;2024-03-17T20:25:04;9.81;87.75
77496;SHT31;66600;48.378;9.948;2024-03-17T20:25:35;9.89;87.60
77496;SHT31;66600;48.378;9.948;2024-03-17T20:26:05;9.89;87.57
77496;SHT31;66600;48.378;9.948;2024-03-17T20:26:35;9.91;87.53
77496;SHT31;66600;48.378;9.948;2024-03-17T20:27:08;9.91;87.59
77496;SHT31;66600;48.378;9.948;2024-03-17T20:27:39;9.88;87.71
77496;SHT31;66600;48.378;9.948;2024-03-17T20:28:13;9.89;87.73
77496;SHT31;66600;48.378;9.948;2024-03-17T20:28:43;9.88;87.80
77496;SHT31;66600;48.378;9.948;2024-03-17T20:29:14;9.85;87.86
77496;SHT31;66600;48.378;9.948;2024-03-17T20:29:45;9.84;87.92
77496;SHT31;66600;48.378;9.948;2024-03-17T20:30:15;9.84;87.98
77496;SHT31;66600;48.378;9.948;2024-03-17T20:30:51;9.85;87.99
77496;SHT31;66600;48.378;9.948;2024-03-17T20:31:22;9.85;87.95
77496;SHT31;66600;48.378;9.948;2024-03-17T20:31:52;9.84;87.97
77496;SHT31;66600;48.378;9.948;2024-03-17T20:32:23;9.86;87.95
77496;SHT31;66600;48.378;9.948;2024-03-17T20:32:54;9.86;87.86
77496;SHT31;66600;48.378;9.948;2024-03-17T20:33:24;9.88;87.84
77496;SHT31;66600;48.378;9.948;2024-03-17T20:33:54;9.91;87.75
77496;SHT31;66600;48.378;9.948;2024-03-17T20:34:25;9.92;87.66
77496;SHT31;66600;48.378;9.948;2024-03-17T20:34:55;9.95;87.66
77496;SHT31;66600;48.378;9.948;2024-03-17T20:35:26;9.95;87.66
77496;SHT31;66600;48.378;9.948;2024-03-17T20:35:57;9.92;87.71
77496;SHT31;66600;48.378;9.948;2024-03-17T20:36:30;9.89;87.76
77496;SHT31;66600;48.378;9.948;2024-03-17T20:37:00;9.89;87.77
77496;SHT31;66600;48.378;9.948;2024-03-17T20:37:32;9.85;87.89
77496;SHT31;66600;48.378;9.948;2024-03-17T20:38:03;9.85;88.05
77496;SHT31;66600;48.378;9.948;2024-03-17T20:38:34;9.79;88.19
77496;SHT31;66600;48.378;9.948;2024-03-17T20:39:04;9.82;88.23
77496;SHT31;66600;48.378;9.948;2024-03-17T20:39:34;9.82;88.30
77496;SHT31;66600;48.378;9.948;2024-03-17T20:40:05;9.85;88.26
77496;SHT31;66600;48.378;9.948;2024-03-17T20:40:39;9.86;88.24
77496;SHT31;66600;48.378;9.948;2024-03-17T20:41:10;9.82;88.20
77496;SHT31;66600;48.378;9.948;2024-03-17T20:41:40;9.84;88.23
77496;SHT31;66600;48.378;9.948;2024-03-17T20:42:10;9.89;88.20
77496;SHT31;66600;48.378;9.948;2024-03-17T20:42:41;9.86;88.15
77496;SHT31;66600;48.378;9.948;2024-03-17T20:43:12;9.88;88.16
77496;SHT31;66600;48.378;9.948;2024-03-17T20:43:42;9.86;88.15
77496;SHT31;66600;48.378;9.948;2024-03-17T20:44:12;9.84;88.18
77496;SHT31;66600;48.378;9.948;2024-03-17T20:44:43;9.85;88.22
77496;SHT31;66600;48.378;9.948;2024-03-17T20:45:13;9.82;88.25
77496;SHT31;66600;48.378;9.948;2024-03-17T20:45:44;9.88;88.22
77496;SHT31;66600;48.378;9.948;2024-03-17T20:46:14;9.88;88.16
77496;SHT31;66600;48.378;9.948;2024-03-17T20:46:45;9.88;88.15
77496;SHT31;66600;48.378;9.948;2024-03-17T20:47:15;9.85;88.13
77496;SHT31;66600;48.378;9.948;2024-03-17T20:47:46;9.88;88.09
77496;SHT31;66600;48.378;9.948;2024-03-17T20:48:19;9.85;88.08
77496;SHT31;66600;48.378;9.948;2024-03-17T20:48:49;9.86;88.08
77496;SHT31;66600;48.378;9.948;2024-03-17T20:49:20;9.82;88.19
77496;SHT31;66600;48.378;9.948;2024-03-17T20:49:53;9.82;88.17
77496;SHT31;66600;48.378;9.948;2024-03-17T20:50:24;9.82;88.16
77496;SHT31;66600;48.378;9.948;2024-03-17T20:50:54;9.82;88.13
77496;SHT31;66600;48.378;9.948;2024-03-17T20:51:24;9.81;88.12
77496;SHT31;66600;48.378;9.948;2024-03-17T20:51:56;9.79;88.18
77496;SHT31;66600;48.378;9.948;2024-03-17T20:52:26;9.78;88.19
77496;SHT31;66600;48.378;9.948;2024-03-17T20:52:57;9.75;88.27
77496;SHT31;66600;48.378;9.948;2024-03-17T20:53:27;9.75;88.28
77496;SHT31;66600;48.378;9.948;2024-03-17T20:53:59;9.77;88.30
77496;SHT31;66600;48.378;9.948;2024-03-17T20:54:33;9.77;88.25
77496;SHT31;66600;48.378;9.948;2024-03-17T20:55:07;9.75;88.24
77496;SHT31;66600;48.378;9.948;2024-03-17T20:55:39;9.74;88.30
77496;SHT31;66600;48.378;9.948;2024-03-17T20:56:09;9.71;88.33
77496;SHT31;66600;48.378;9.948;2024-03-17T20:56:40;9.74;88.35
77496;SHT31;66600;48.378;9.948;2024-03-17T20:57:10;9.74;88.30
77496;SHT31;66600;48.378;9.948;2024-03-17T20:57:41;9.75;88.33
77496;SHT31;66600;48.378;9.948;2024-03-17T20:58:12;9.71;88.36
77496;SHT31;66600;48.378;9.948;2024-03-17T20:58:42;9.70;88.36
77496;SHT31;66600;48.378;9.948;2024-03-17T20:59:14;9.68;88.41
77496;SHT31;66600;48.378;9.948;2024-03-17T20:59:46;9.68;88.43
77496;SHT31;66600;48.378;9.948;2024-03-17T21:00:23;9.62;88.49
77496;SHT31;66600;48.378;9.948;2024-03-17T21:00:55;9.61;88.66
77496;SHT31;66600;48.378;9.948;2024-03-17T21:01:26;9.62;88.70
77496;SHT31;66600;48.378;9.948;2024-03-17T21:01:56;9.61;88.72
77496;SHT31;66600;48.378;9.948;2024-03-17T21:02:27;9.61;88.72
77496;SHT31;66600;48.378;9.948;2024-03-17T21:02:57;9.65;88.70
77496;SHT31;66600;48.378;9.948;2024-03-17T21:03:29;9.65;88.63
77496;SHT31;66600;48.378;9.948;2024-03-17T21:03:59;9.67;88.61
77496;SHT31;66600;48.378;9.948;2024-03-17T21:04:31;9.62;88.68
77496;SHT31;66600;48.378;9.948;2024-03-17T21:05:02;9.64;88.68
77496;SHT31;66600;48.378;9.948;2024-03-17T21:05:37;9.64;88.65
77496;SHT31;66600;48.378;9.948;2024-03-17T21:06:13;9.67;88.64
77496;SHT31;66600;48.378;9.948;2024-03-17T21:06:46;9.64;88.65
77496;SHT31;66600;48.378;9.948;2024-03-17T21:07:18;9.62;88.62
77496;SHT31;66600;48.378;9.948;2024-03-17T21:07:52;9.65;88.61
77496;SHT31;66600;48.378;9.948;2024-03-17T21:08:22;9.64;88.59
77496;SHT31;66600;48.378;9.948;2024-03-17T21:08:53;9.64;88.61
77496;SHT31;66600;48.378;9.948;2024-03-17T21:09:23;9.61;88.66
77496;SHT31;66600;48.378;9.948;2024-03-17T21:09:54;9.58;88.67
77496;SHT31;66600;48.378;9.948;2024-03-17T21:10:26;9.57;88.79
77496;SHT31;66600;48.378;9.948;2024-03-17T21:10:59;9.54;88.82
77496;SHT31;66600;48.378;9.948;2024-03-17T21:11:31;9.52;88.87
77496;SHT31;66600;48.378;9.948;2024-03-17T21:12:02;9.50;88.93
77496;SHT31;66600;48.378;9.948;2024-03-17T21:12:32;9.52;88.96
77496;SHT31;66600;48.378;9.948;2024-03-17T21:13:03;9.51;88.98
77496;SHT31;66600;48.378;9.948;2024-03-17T21:13:34;9.48;89.16
77496;SHT31;66600;48.378;9.948;2024-03-17T21:14:05;9.41;89.22
77496;SHT31;66600;48.378;9.948;2024-03-17T21:14:37;9.40;89.25
77496;SHT31;66600;48.378;9.948;2024-03-17T21:15:11;9.41;89.30
77496;SHT31;66600;48.378;9.948;2024-03-17T21:15:44;9.38;89.36
77496;SHT31;66600;48.378;9.948;2024-03-17T21:16:17;9.41;89.31
77496;SHT31;66600;48.378;9.948;2024-03-17T21:16:48;9.44;89.33
77496;SHT31;66600;48.378;9.948;2024-03-17T21:17:19;9.44;89.28
77496;SHT31;66600;48.378;9.948;2024-03-17T21:17:50;9.44;89.32
77496;SHT31;66600;48.378;9.948;2024-03-17T21:18:21;9.44;89.28
77496;SHT31;66600;48.378;9.948;2024-03-17T21:18:53;9.48;89.84
77496;SHT31;66600;48.378;9.948;2024-03-17T21:19:23;9.47;89.69
77496;SHT31;66600;48.378;9.948;2024-03-17T21:19:54;9.44;89.62
77496;SHT31;66600;48.378;9.948;2024-03-17T21:20:25;9.43;89.69
77496;SHT31;66600;48.378;9.948;2024-03-17T21:21:02;9.43;90.02
77496;SHT31;66600;48.378;9.948;2024-03-17T21:21:33;9.51;90.00
77496;SHT31;66600;48.378;9.948;2024-03-17T21:22:04;9.51;89.99
77496;SHT31;66600;48.378;9.948;2024-03-17T21:22:34;9.48;89.78
77496;SHT31;66600;48.378;9.948;2024-03-17T21:23:04;9.45;89.79
77496;SHT31;66600;48.378;9.948;2024-03-17T21:23:36;9.43;89.76
77496;SHT31;66600;48.378;9.948;2024-03-17T21:24:06;9.43;89.68
77496;SHT31;66600;48.378;9.948;2024-03-17T21:24:37;9.41;89.65
77496;SHT31;66600;48.378;9.948;2024-03-17T21:25:08;9.41;89.64
77496;SHT31;66600;48.378;9.948;2024-03-17T21:25:40;9.43;89.59
77496;SHT31;66600;48.378;9.948;2024-03-17T21:26:10;9.41;89.61
77496;SHT31;66600;48.378;9.948;2024-03-17T21:26:41;9.38;89.57
77496;SHT31;66600;48.378;9.948;2024-03-17T21:27:11;9.40;89.52
77496;SHT31;66600;48.378;9.948;2024-03-17T21:27:43;9.40;89.47
77496;SHT31;66600;48.378;9.948;2024-03-17T21:28:16;9.40;89.45
77496;SHT31;66600;48.378;9.948;2024-03-17T21:28:48;9.37;89.43
77496;SHT31;66600;48.378;9.948;2024-03-17T21:29:19;9.37;89.41
77496;SHT31;66600;48.378;9.948;2024-03-17T21:29:52;9.37;89.40
77496;SHT31;66600;48.378;9.948;2024-03-17T21:30:22;9.37;89.39
77496;SHT31;66600;48.378;9.948;2024-03-17T21:30:59;9.34;89.41
77496;SHT31;66600;48.378;9.948;2024-03-17T21:31:30;9.36;89.43
77496;SHT31;66600;48.378;9.948;2024-03-17T21:32:00;9.31;89.45
77496;SHT31;66600;48.378;9.948;2024-03-17T21:32:31;9.28;89.45
77496;SHT31;66600;48.378;9.948;2024-03-17T21:33:03;9.27;89.57
77496;SHT31;66600;48.378;9.948;2024-03-17T21:33:34;9.19;89.65
77496;SHT31;66600;48.378;9.948;2024-03-17T21:34:04;9.17;89.71
77496;SHT31;66600;48.378;9.948;2024-03-17T21:34:34;9.19;89.73
77496;SHT31;66600;48.378;9.948;2024-03-17T21:35:05;9.26;89.87
77496;SHT31;66600;48.378;9.948;2024-03-17T21:35:37;9.22;89.79
77496;SHT31;66600;48.378;9.948;2024-03-17T21:36:08;9.20;89.90
77496;SHT31;66600;48.378;9.948;2024-03-17T21:36:38;9.15;89.92
77496;SHT31;66600;48.378;9.948;2024-03-17T21:37:09;9.12;89.97
77496;SHT31;66600;48.378;9.948;2024-03-17T21:37:39;9.06;90.05
77496;SHT31;66600;48.378;9.948;2024-03-17T21:38:09;9.05;90.09
77496;SHT31;66600;48.378;9.948;2024-03-17T21:38:40;9.02;90.15
77496;SHT31;66600;48.378;9.948;2024-03-17T21:39:10;9.03;90.21
77496;SHT31;66600;48.378;9.948;2024-03-17T21:39:41;8.98;90.20
77496;SHT31;66600;48.378;9.948;2024-03-17T21:40:12;8.96;90.27
77496;SHT31;66600;48.378;9.948;2024-03-17T21:40:46;8.92;90.36
77496;SHT31;66600;48.378;9.948;2024-03-17T21:41:17;8.95;90.40
77496;SHT31;66600;48.378;9.948;2024-03-17T21:41:50;8.92;90.49
77496;SHT31;66600;48.378;9.948;2024-03-17T21:42:21;8.88;90.50
77496;SHT31;66600;48.378;9.948;2024-03-17T21:42:51;8.86;90.51
77496;SHT31;66600;48.378;9.948;2024-03-17T21:43:22;8.86;90.60
77496;SHT31;66600;48.378;9.948;2024-03-17T21:43:52;8.82;90.63
77496;SHT31;66600;48.378;9.948;2024-03-17T21:44:23;8.81;90.60
77496;SHT31;66600;48.378;9.948;2024-03-17T21:44:53;8.81;90.66
77496;SHT31;66600;48.378;9.948;2024-03-17T21:45:23;8.78;90.62
77496;SHT31;66600;48.378;9.948;2024-03-17T21:46:00;8.79;90.64
77496;SHT31;66600;48.378;9.948;2024-03-17T21:46:30;8.78;90.88
77496;SHT31;66600;48.378;9.948;2024-03-17T21:47:01;8.78;90.86
77496;SHT31;66600;48.378;9.948;2024-03-17T21:47:31;8.79;90.99
77496;SHT31;66600;48.378;9.948;2024-03-17T21:48:01;8.79;90.96
77496;SHT31;66600;48.378;9.948;2024-03-17T21:48:32;8.78;90.94
77496;SHT31;66600;48.378;9.948;2024-03-17T21:49:02;8.81;90.99
77496;SHT31;66600;48.378;9.948;2024-03-17T21:49:34;8.81;91.01
77496;SHT31;66600;48.378;9.948;2024-03-17T21:50:06;8.81;90.95
77496;SHT31;66600;48.378;9.948;2024-03-17T21:50:37;8.76;90.89
77496;SHT31;66600;48.378;9.948;2024-03-17T21:51:07;8.73;90.95
77496;SHT31;66600;48.378;9.948;2024-03-17T21:51:38;8.75;91.15
77496;SHT31;66600;48.378;9.948;2024-03-17T21:52:08;8.72;90.91
77496;SHT31;66600;48.378;9.948;2024-03-17T21:52:39;8.71;90.93
77496;SHT31;66600;48.378;9.948;2024-03-17T21:53:10;8.69;90.96
77496;SHT31;66600;48.378;9.948;2024-03-17T21:53:40;8.68;90.89
77496;SHT31;66600;48.378;9.948;2024-03-17T21:54:12;8.67;91.07
77496;SHT31;66600;48.378;9.948;2024-03-17T21:54:42;8.62;91.04
77496;SHT31;66600;48.378;9.948;2024-03-17T21:55:13;8.65;91.04
77496;SHT31;66600;48.378;9.948;2024-03-17T21:55:43;8.62;91.36
77496;SHT31;66600;48.378;9.948;2024-03-17T21:56:14;8.64;91.24
77496;SHT31;66600;48.378;9.948;2024-03-17T21:56:44;8.65;91.25
77496;SHT31;66600;48.378;9.948;2024-03-17T21:57:14;8.64;91.24
77496;SHT31;66600;48.378;9.948;2024-03-17T21:57:45;8.67;91.17
77496;SHT31;66600;48.378;9.948;2024-03-17T21:58:15;8.65;91.23
77496;SHT31;66600;48.378;9.948;2024-03-17T21:58:45;8.64;91.23
77496;SHT31;66600;48.378;9.948;2024-03-17T21:59:16;8.67;91.17
77496;SHT31;66600;48.378;9.948;2024-03-17T21:59:52;8.62;91.11
77496;SHT31;66600;48.378;9.948;2024-03-17T22:00:23;8.64;91.10
77496;SHT31;66600;48.378;9.948;2024-03-17T22:01:02;8.65;91.07
77496;SHT31;66600;48.378;9.948;2024-03-17T22:01:36;8.67;91.05
77496;SHT31;66600;48.378;9.948;2024-03-17T22:02:06;8.65;91.01
77496;SHT31;66600;48.378;9.948;2024-03-17T22:02:37;8.65;91.00
77496;SHT31;66600;48.378;9.948;2024-03-17T22:03:10;8.67;90.93
77496;SHT31;66600;48.378;9.948;2024-03-17T22:03:40;8.67;90.97
77496;SHT31;66600;48.378;9.948;2024-03-17T22:04:11;8.65;90.96
77496;SHT31;66600;48.378;9.948;2024-03-17T22:04:41;8.64;90.94
77496;SHT31;66600;48.378;9.948;2024-03-17T22:05:12;8.67;90.98
77496;SHT31;66600;48.378;9.948;2024-03-17T22:05:52;8.64;90.95
77496;SHT31;66600;48.378;9.948;2024-03-17T22:06:24;8.67;90.93
77496;SHT31;66600;48.378;9.948;2024-03-17T22:06:55;8.67;90.87
77496;SHT31;66600;48.378;9.948;2024-03-17T22:07:26;8.69;90.84
77496;SHT31;66600;48.378;9.948;2024-03-17T22:07:56;8.71;90.92
77496;SHT31;66600;48.378;9.948;2024-03-17T22:08:26;8.72;90.86
77496;SHT31;66600;48.378;9.948;2024-03-17T22:08:58;8.69;90.83
77496;SHT31;66600;48.378;9.948;2024-03-17T22:09:28;8.69;90.88
77496;SHT31;66600;48.378;9.948;2024-03-17T22:09:59;8.69;90.78
77496;SHT31;66600;48.378;9.948;2024-03-17T22:10:29;8.69;90.79
77496;SHT31;66600;48.378;9.948;2024-03-17T22:10:59;8.68;90.83
77496;SHT31;66600;48.378;9.948;2024-03-17T22:11:30;8.68;90.84
77496;SHT31;66600;48.378;9.948;2024-03-17T22:12:01;8.68;90.80
77496;SHT31;66600;48.378;9.948;2024-03-17T22:12:33;8.67;90.76